createdAt,value
2018-02-07T00:01:18.634Z,19.98
2018-02-07T00:04:28.641Z,20.80
2018-02-07T00:07:38.583Z,17.48
2018-02-07T00:10:48.508Z,19.60
2018-02-07T00:13:58.470Z,23.25
2018-02-07T00:17:08.597Z,17.05
2018-02-07T00:20:18.647Z,22.08
2018-02-07T00:23:28.789Z,19.00
2018-02-07T00:26:38.887Z,20.17
2018-02-07T00:29:49.181Z,18.08
2018-02-07T00:32:59.281Z,19.70
2018-02-07T00:36:10.140Z,20.42
2018-02-07T00:39:20.733Z,26.30
2018-02-07T00:42:30.539Z,19.75
2018-02-07T00:45:41.463Z,20.80
2018-02-07T00:48:51.940Z,15.70
2018-02-07T00:52:02.847Z,18.37
2018-02-07T00:55:13.081Z,15.55
2018-02-07T00:58:22.992Z,17.35
2018-02-07T01:01:33.731Z,16.92
2018-02-07T01:04:43.976Z,18.27
2018-02-07T01:07:54.145Z,21.60
2018-02-07T01:11:04.106Z,19.30
2018-02-07T01:14:14.460Z,23.90
2018-02-07T01:17:25.121Z,18.45
2018-02-07T01:20:34.955Z,17.55
2018-02-07T01:23:45.352Z,17.35
2018-02-07T01:26:55.091Z,15.57
2018-02-07T01:30:04.923Z,21.12
2018-02-07T01:33:14.849Z,14.63
2018-02-07T01:36:25.069Z,17.05
2018-02-07T01:39:35.144Z,21.17
2018-02-07T01:42:45.247Z,19.42
2018-02-07T01:45:55.643Z,18.10
2018-02-07T01:49:05.516Z,17.52
2018-02-07T01:52:15.404Z,18.05
2018-02-07T01:55:25.323Z,16.10
2018-02-07T01:58:35.407Z,18.40
2018-02-07T02:01:45.310Z,21.80
2018-02-07T02:04:55.952Z,17.60
2018-02-07T02:08:06.349Z,17.10
2018-02-07T02:11:16.256Z,16.08
2018-02-07T02:14:27.125Z,19.83
2018-02-07T02:17:37.069Z,18.75
2018-02-07T02:20:46.953Z,17.20
2018-02-07T02:23:56.876Z,18.05
2018-02-07T02:27:07.135Z,21.90
2018-02-07T02:30:16.962Z,21.80
2018-02-07T02:33:26.918Z,16.15
2018-02-07T02:36:41.441Z,17.42
2018-02-07T02:39:51.532Z,20.35
2018-02-07T02:43:01.544Z,20.60
2018-02-07T02:46:11.698Z,19.95
2018-02-07T02:49:21.525Z,24.87
2018-02-07T02:52:31.394Z,16.77
2018-02-07T02:55:41.966Z,18.17
2018-02-07T02:58:52.129Z,19.98
2018-02-07T03:02:02.686Z,16.87
2018-02-07T03:05:13.677Z,19.27
2018-02-07T03:08:23.944Z,18.50
2018-02-07T03:11:35.024Z,20.02
2018-02-07T03:14:45.576Z,15.70
2018-02-07T03:17:55.596Z,15.10
2018-02-07T03:21:05.064Z,18.02
2018-02-07T03:24:15.247Z,15.98
2018-02-07T03:27:26.005Z,12.90
2018-02-07T03:30:36.067Z,14.48
2018-02-07T03:33:46.147Z,18.90
2018-02-07T03:36:56.281Z,20.05
2018-02-07T03:40:06.197Z,16.60
2018-02-07T03:43:17.019Z,20.10
2018-02-07T03:46:27.704Z,14.60
2018-02-07T03:49:37.709Z,16.65
2018-02-07T03:52:47.708Z,16.75
2018-02-07T03:55:57.415Z,15.30
2018-02-07T03:59:07.627Z,17.60
2018-02-07T04:02:17.635Z,20.33
2018-02-07T04:05:27.430Z,16.37
2018-02-07T04:08:37.232Z,16.30
2018-02-07T04:11:48.197Z,19.20
2018-02-07T04:14:59.326Z,18.12
2018-02-07T04:18:10.138Z,18.15
2018-02-07T04:21:20.423Z,16.05
2018-02-07T04:24:30.787Z,14.63
2018-02-07T04:27:40.877Z,17.23
2018-02-07T04:30:51.911Z,14.82
2018-02-07T04:34:01.871Z,18.58
2018-02-07T04:37:11.699Z,15.13
2018-02-07T04:40:21.493Z,17.15
2018-02-07T04:43:31.347Z,15.90
2018-02-07T04:46:41.268Z,15.27
2018-02-07T04:49:51.123Z,14.77
2018-02-07T04:53:01.226Z,16.00
2018-02-07T04:56:11.241Z,16.85
2018-02-07T04:59:22.094Z,15.20
2018-02-07T05:02:32.433Z,12.93
2018-02-07T05:05:42.386Z,15.82
2018-02-07T05:08:52.801Z,15.32
2018-02-07T05:12:02.773Z,17.00
2018-02-07T05:15:12.809Z,15.50
2018-02-07T05:18:23.987Z,17.25
2018-02-07T05:21:33.862Z,12.13
2018-02-07T05:24:43.780Z,19.85
2018-02-07T05:27:53.869Z,17.87
2018-02-07T05:31:04.058Z,16.75
2018-02-07T05:34:14.184Z,16.00
2018-02-07T05:37:24.030Z,14.13
2018-02-07T05:40:34.157Z,17.98
2018-02-07T05:43:44.031Z,17.50
2018-02-07T05:46:53.943Z,15.00
2018-02-07T05:50:03.489Z,13.40
2018-02-07T05:53:13.821Z,15.60
2018-02-07T05:56:23.950Z,13.98
2018-02-07T05:59:34.172Z,15.75
2018-02-07T06:02:44.925Z,15.70
2018-02-07T06:05:55.192Z,16.85
2018-02-07T06:09:04.589Z,17.83
2018-02-07T06:12:15.845Z,18.15
2018-02-07T06:15:26.036Z,18.67
2018-02-07T06:18:35.959Z,14.93
2018-02-07T06:21:46.114Z,14.07
2018-02-07T06:24:56.772Z,14.60
2018-02-07T06:28:06.959Z,17.35
2018-02-07T06:31:16.834Z,14.73
2018-02-07T06:34:26.934Z,15.55
2018-02-07T06:37:37.188Z,15.40
2018-02-07T06:40:47.144Z,16.67
2018-02-07T06:43:57.190Z,16.02
2018-02-07T06:47:07.337Z,18.33
2018-02-07T06:50:17.147Z,20.23
2018-02-07T06:53:27.236Z,20.67
2018-02-07T06:56:37.191Z,19.12
2018-02-07T06:59:47.011Z,19.77
2018-02-07T07:02:57.044Z,15.98
2018-02-07T07:06:06.833Z,22.48
2018-02-07T07:09:16.938Z,23.65
2018-02-07T07:12:27.837Z,15.45
2018-02-07T07:15:38.022Z,17.10
2018-02-07T07:18:48.254Z,22.80
2018-02-07T07:21:58.305Z,18.58
2018-02-07T07:25:08.312Z,20.20
2018-02-07T07:28:20.125Z,18.65
2018-02-07T07:31:30.431Z,19.37
2018-02-07T07:34:40.986Z,18.85
2018-02-07T07:37:51.356Z,21.05
2018-02-07T07:41:01.401Z,17.48
2018-02-07T07:44:11.595Z,16.15
2018-02-07T07:47:21.847Z,15.55
2018-02-07T07:50:31.968Z,16.05
2018-02-07T07:53:42.155Z,17.25
2018-02-07T07:56:52.262Z,17.55
2018-02-07T08:00:02.121Z,18.33
2018-02-07T08:03:12.354Z,20.98
2018-02-07T08:06:22.175Z,18.20
2018-02-07T08:09:32.930Z,18.55
2018-02-07T08:12:43.114Z,15.57
2018-02-07T08:15:52.936Z,26.37
2018-02-07T08:19:03.594Z,18.75
2018-02-07T08:22:13.533Z,19.83
2018-02-07T08:25:23.448Z,17.70
2018-02-07T08:28:33.381Z,17.08
2018-02-07T08:31:44.424Z,19.98
2018-02-07T08:34:54.620Z,16.73
2018-02-07T08:38:04.313Z,22.62
2018-02-07T08:41:14.683Z,18.48
2018-02-07T08:44:24.541Z,20.42
2018-02-07T08:47:35.364Z,17.95
2018-02-07T08:50:46.601Z,20.85
2018-02-07T08:53:56.636Z,17.55
2018-02-07T08:57:07.964Z,20.52
2018-02-07T09:00:18.300Z,17.62
2018-02-07T09:03:29.211Z,19.00
2018-02-07T09:06:39.707Z,22.20
2018-02-07T09:09:51.054Z,20.02
2018-02-07T09:13:00.878Z,19.67
2018-02-07T09:16:10.852Z,22.80
2018-02-07T09:19:20.923Z,21.15
2018-02-07T09:22:30.958Z,16.02
2018-02-07T09:25:40.945Z,15.00
2018-02-07T09:28:50.781Z,20.40
2018-02-07T09:32:01.485Z,21.58
2018-02-07T09:35:11.905Z,24.15
2018-02-07T09:38:21.590Z,30.52
2018-02-07T09:41:32.683Z,18.85
2018-02-07T09:44:42.751Z,23.27
2018-02-07T09:47:52.854Z,26.25
2018-02-07T09:51:04.102Z,23.00
2018-02-07T09:54:14.551Z,26.02
2018-02-07T09:57:24.780Z,33.40
2018-02-07T10:00:34.611Z,19.17
2018-02-07T10:03:44.616Z,23.90
2018-02-07T10:06:55.380Z,20.05
2018-02-07T10:10:05.976Z,23.35
2018-02-07T10:13:16.129Z,24.95
2018-02-07T10:16:25.656Z,21.83
2018-02-07T10:19:35.989Z,32.35
2018-02-07T10:22:45.913Z,26.45
2018-02-07T10:25:56.449Z,21.55
2018-02-07T10:29:06.947Z,25.08
2018-02-07T10:32:16.836Z,26.50
2018-02-07T10:35:26.946Z,25.23
2018-02-07T10:38:37.798Z,24.60
2018-02-07T10:41:48.950Z,24.37
2018-02-07T10:44:59.901Z,27.40
2018-02-07T10:48:10.548Z,23.98
2018-02-07T10:51:21.860Z,25.90
2018-02-07T10:54:31.706Z,20.70
2018-02-07T10:57:41.730Z,23.52
2018-02-07T11:00:51.552Z,22.83
2018-02-07T11:04:01.598Z,16.58
2018-02-07T11:07:12.909Z,18.65
2018-02-07T11:10:23.154Z,23.80
2018-02-07T11:13:32.960Z,27.50
2018-02-07T11:16:43.986Z,21.55
2018-02-07T11:19:53.995Z,26.05
2018-02-07T11:23:04.023Z,29.95
2018-02-07T11:26:15.057Z,29.55
2018-02-07T11:29:25.467Z,20.42
2018-02-07T11:32:36.288Z,12.90
2018-02-07T11:35:46.505Z,21.17
2018-02-07T11:38:56.625Z,24.90
2018-02-07T11:42:06.576Z,19.48
2018-02-07T11:45:16.386Z,22.25
2018-02-07T11:48:26.211Z,27.58
2018-02-07T11:51:36.310Z,21.08
2018-02-07T11:54:46.448Z,24.17
2018-02-07T11:57:56.301Z,25.85
2018-02-07T12:01:06.233Z,26.45
2018-02-07T12:04:16.451Z,17.58
2018-02-07T12:07:26.345Z,17.17
2018-02-07T12:10:37.225Z,27.58
2018-02-07T12:13:47.654Z,26.35
2018-02-07T12:16:57.802Z,26.55
2018-02-07T12:20:08.023Z,22.52
2018-02-07T12:23:17.831Z,25.85
2018-02-07T12:26:27.868Z,24.52
2018-02-07T12:29:38.607Z,23.85
2018-02-07T12:32:49.666Z,25.52
2018-02-07T12:36:00.071Z,18.27
2018-02-07T12:39:10.063Z,22.77
2018-02-07T12:42:20.269Z,21.95
2018-02-07T12:45:30.264Z,36.78
2018-02-07T12:48:39.983Z,22.55
2018-02-07T12:51:50.048Z,41.33
2018-02-07T12:54:59.890Z,35.95
2018-02-07T12:58:09.748Z,38.75
2018-02-07T13:01:19.791Z,37.60
2018-02-07T13:04:29.630Z,29.58
2018-02-07T13:07:41.240Z,25.48
2018-02-07T13:10:51.851Z,37.75
2018-02-07T13:14:02.949Z,39.15
2018-02-07T13:17:14.052Z,30.83
2018-02-07T13:20:24.251Z,26.48
2018-02-07T13:23:34.493Z,32.40
2018-02-07T13:26:44.427Z,29.42
2018-02-07T13:29:54.699Z,39.70
2018-02-07T13:33:04.854Z,34.28
2018-02-07T13:36:14.692Z,32.90
2018-02-07T13:39:25.101Z,34.22
2018-02-07T13:42:35.248Z,41.35
2018-02-07T13:45:45.044Z,34.03
2018-02-07T13:48:58.213Z,33.75
2018-02-07T13:52:10.500Z,29.12
2018-02-07T13:55:21.110Z,50.58
2018-02-07T13:58:30.992Z,35.38
2018-02-07T14:01:40.893Z,32.05
2018-02-07T14:04:51.249Z,38.28
2018-02-07T14:08:05.314Z,39.40
2018-02-07T14:11:16.016Z,22.75
2018-02-07T14:14:26.193Z,50.60
2018-02-07T14:17:36.426Z,25.70
2018-02-07T14:20:47.449Z,33.75
2018-02-07T14:23:57.446Z,38.83
2018-02-07T14:27:07.375Z,24.70
2018-02-07T14:30:18.504Z,35.95
2018-02-07T14:33:28.352Z,27.33
2018-02-07T14:36:39.493Z,34.53
2018-02-07T14:39:51.213Z,34.42
2018-02-07T14:43:02.884Z,32.65
2018-02-07T14:46:13.719Z,38.35
2018-02-07T14:49:25.308Z,32.83
2018-02-07T14:52:35.993Z,39.97
2018-02-07T14:55:46.219Z,37.03
2018-02-07T14:58:56.152Z,30.67
2018-02-07T15:02:06.220Z,38.42
2018-02-07T15:05:16.522Z,34.20
2018-02-07T15:08:26.328Z,30.62
2018-02-07T15:11:36.752Z,28.42
2018-02-07T15:14:46.624Z,37.75
2018-02-07T15:17:56.847Z,36.90
2018-02-07T15:21:07.915Z,32.67
2018-02-07T15:24:19.009Z,32.85
2018-02-07T15:27:30.054Z,38.03
2018-02-07T15:30:40.439Z,30.85
2018-02-07T15:33:50.469Z,37.30
2018-02-07T15:37:00.559Z,38.35
2018-02-07T15:40:11.451Z,31.12
2018-02-07T15:43:21.041Z,37.40
2018-02-07T15:46:31.098Z,35.30
2018-02-07T15:49:42.914Z,34.05
2018-02-07T15:52:52.852Z,36.65
2018-02-07T15:56:02.583Z,35.65
2018-02-07T15:59:12.541Z,38.17
2018-02-07T16:02:22.575Z,33.47
2018-02-07T16:05:32.993Z,36.63
2018-02-07T16:08:44.184Z,31.85
2018-02-07T16:11:54.292Z,26.50
2018-02-07T16:15:04.336Z,29.95
2018-02-07T16:18:14.910Z,31.85
2018-02-07T16:21:24.707Z,31.48
2018-02-07T16:24:34.727Z,27.33
2018-02-07T16:27:46.779Z,32.53
2018-02-07T16:30:57.848Z,31.23
2018-02-07T16:34:08.982Z,34.70
2018-02-07T16:37:19.499Z,29.10
2018-02-07T16:40:29.288Z,26.60
2018-02-07T16:43:39.353Z,25.90
2018-02-07T16:46:49.475Z,29.83
2018-02-07T16:50:00.195Z,28.45
2018-02-07T16:53:11.345Z,25.00
2018-02-07T16:56:21.494Z,30.67
2018-02-07T16:59:31.631Z,26.12
2018-02-07T17:02:42.592Z,28.73
2018-02-07T17:05:53.120Z,27.42
2018-02-07T17:09:04.306Z,24.95
2018-02-07T17:12:14.920Z,27.02
2018-02-07T17:15:24.656Z,26.98
2018-02-07T17:18:34.958Z,26.83
2018-02-07T17:21:45.475Z,23.90
2018-02-07T17:24:56.463Z,28.42
2018-02-07T17:28:07.035Z,25.37
2018-02-07T17:31:18.250Z,30.12
2018-02-07T17:34:30.220Z,32.33
2018-02-07T17:37:41.108Z,34.10
2018-02-07T17:40:52.556Z,34.63
2018-02-07T17:44:02.944Z,31.92
2018-02-07T17:47:13.334Z,34.97
2018-02-07T17:50:23.023Z,37.03
2018-02-07T17:53:34.438Z,36.65
2018-02-07T17:56:45.236Z,31.98
2018-02-07T17:59:56.258Z,38.50
2018-02-07T18:03:06.169Z,36.40
2018-02-07T18:06:17.323Z,38.20
2018-02-07T18:09:27.174Z,32.15
2018-02-07T18:12:37.341Z,40.50
2018-02-07T18:15:47.283Z,39.13
2018-02-07T18:18:57.950Z,33.28
2018-02-07T18:22:08.357Z,39.28
2018-02-07T18:25:18.407Z,36.70
2018-02-07T18:28:29.324Z,33.92
2018-02-07T18:31:39.185Z,32.60
2018-02-07T18:34:49.388Z,35.20
2018-02-07T18:37:59.434Z,34.42
2018-02-07T18:41:09.338Z,34.35
2018-02-07T18:44:19.461Z,36.85
2018-02-07T18:47:29.435Z,37.58
2018-02-07T18:50:39.334Z,34.10
2018-02-07T18:53:49.949Z,34.17
2018-02-07T18:56:59.814Z,34.10
2018-02-07T19:00:10.942Z,34.92
2018-02-07T19:03:20.892Z,38.38
2018-02-07T19:06:30.504Z,32.70
2018-02-07T19:09:41.137Z,28.70
2018-02-07T19:12:51.234Z,36.28
2018-02-07T19:16:01.023Z,33.30
2018-02-07T19:19:11.069Z,36.15
2018-02-07T19:22:21.128Z,30.65
2018-02-07T19:25:31.160Z,32.38
2018-02-07T19:28:42.314Z,35.28
2018-02-07T19:31:53.229Z,38.22
2018-02-07T19:35:04.231Z,34.25
2018-02-07T19:38:14.302Z,36.20
2018-02-07T19:41:24.107Z,32.13
2018-02-07T19:44:34.015Z,31.98
2018-02-07T19:47:43.881Z,31.48
2018-02-07T19:50:53.562Z,34.88
2018-02-07T19:54:03.644Z,36.28
2018-02-07T19:57:13.607Z,30.92
2018-02-07T20:00:24.571Z,26.05
2018-02-07T20:03:34.610Z,27.45
2018-02-07T20:06:44.719Z,32.65
2018-02-07T20:09:54.714Z,37.17
2018-02-07T20:13:05.477Z,32.95
2018-02-07T20:16:16.530Z,33.17
2018-02-07T20:19:26.733Z,31.73
2018-02-07T20:22:37.028Z,35.33
2018-02-07T20:25:47.004Z,33.08
2018-02-07T20:28:57.122Z,30.00
2018-02-07T20:32:07.239Z,34.42
2018-02-07T20:35:17.443Z,33.90
2018-02-07T20:42:03.166Z,29.00
2018-02-07T20:45:13.975Z,34.45
2018-02-07T20:48:24.284Z,33.10
2018-02-07T20:51:35.005Z,37.28
2018-02-07T20:54:44.879Z,34.42
2018-02-07T20:57:55.091Z,36.20
2018-02-07T21:01:05.056Z,36.22
2018-02-07T21:04:14.893Z,37.40
2018-02-07T21:07:24.978Z,37.80
2018-02-07T21:10:35.265Z,32.72
2018-02-07T21:13:45.092Z,34.78
2018-02-07T21:16:55.027Z,31.65
2018-02-07T21:20:05.160Z,33.67
2018-02-07T21:23:15.484Z,32.22
2018-02-07T21:26:25.415Z,35.03
2018-02-07T21:29:36.728Z,35.25
2018-02-07T21:32:46.996Z,35.67
2018-02-07T21:35:57.442Z,34.03
2018-02-07T21:39:07.521Z,41.75
2018-02-07T21:42:17.443Z,38.15
2018-02-07T21:45:27.295Z,35.35
2018-02-07T21:48:37.441Z,38.33
2018-02-07T21:51:47.540Z,35.40
2018-02-07T21:54:58.153Z,35.08
2018-02-07T21:58:08.173Z,32.90
2018-02-07T22:01:17.962Z,37.83
2018-02-07T22:04:27.841Z,38.90
2018-02-07T22:07:37.683Z,31.55
2018-02-07T22:10:47.701Z,37.97
2018-02-07T22:13:57.601Z,31.92
2018-02-07T22:17:07.813Z,31.45
2018-02-07T22:20:17.905Z,32.33
2018-02-07T22:23:27.753Z,35.15
2018-02-07T22:26:37.989Z,32.83
2018-02-07T22:29:47.902Z,28.40
2018-02-07T22:32:57.969Z,31.37
2018-02-07T22:36:08.828Z,32.92
2018-02-07T22:39:19.004Z,30.48
2018-02-07T22:42:29.068Z,30.27
2018-02-07T22:45:40.150Z,38.55
2018-02-07T22:48:51.254Z,32.20
2018-02-07T22:52:01.746Z,37.05
2018-02-07T22:55:11.951Z,34.30
2018-02-07T22:58:21.735Z,32.65
2018-02-07T23:01:32.230Z,34.00
2018-02-07T23:04:43.107Z,34.45
2018-02-07T23:07:53.216Z,37.17
2018-02-07T23:11:03.393Z,31.98
2018-02-07T23:14:13.572Z,29.45
2018-02-07T23:17:24.755Z,34.40
2018-02-07T23:20:35.285Z,32.30
2018-02-07T23:23:45.414Z,33.00
2018-02-07T23:26:55.504Z,31.73
2018-02-07T23:30:05.524Z,41.37
2018-02-07T23:33:15.556Z,27.33
2018-02-07T23:36:25.566Z,33.90
2018-02-07T23:39:35.445Z,42.53
2018-02-07T23:42:45.879Z,33.88
2018-02-07T23:45:55.832Z,38.75
2018-02-07T23:49:05.603Z,33.10
2018-02-07T23:52:15.793Z,25.37
2018-02-07T23:55:25.779Z,31.67
2018-02-07T23:58:35.610Z,38.13
